Terminal Aerodrome Forecast
Issued by NWS Sterling, VA

Current Version | Previous Version | Graphics & Text | Print | Product List | Glossary On
Versions: 1 2 3 4 5 6 7 8 9 10 11 12 13 14 15 16 17 18 19 20
000
FTUS41 KLWX 270842 AAA
TAFMRB
TAF AMD
KMRB 270842Z 2709/2806 00000KT 1 1/2SM BR OVC002
     FM271200 20004KT P6SM BKN003
     FM271300 21004KT P6SM BKN008
     FM271600 23007KT P6SM BKN050
     FM272100 24007KT P6SM SCT050
     FM272300 25005KT P6SM BKN050=

USA.gov is the U.S. government's official web portal to all federal, state and local government web resources and services.